createdAt,value
2022-11-09T00:02:17.795Z,2.23
2022-11-09T00:04:44.240Z,2.27
2022-11-09T00:07:10.569Z,2.00
2022-11-09T00:09:37.079Z,2.13
2022-11-09T00:12:04.839Z,2.13
2022-11-09T00:14:31.227Z,2.10
2022-11-09T00:16:57.595Z,2.33
2022-11-09T00:19:24.176Z,2.13
2022-11-09T00:21:50.567Z,2.23
2022-11-09T00:24:16.980Z,1.90
2022-11-09T00:26:43.462Z,2.50
2022-11-09T00:29:09.986Z,2.37
2022-11-09T00:31:36.284Z,1.80
2022-11-09T00:34:02.983Z,2.60
2022-11-09T00:36:29.764Z,2.30
2022-11-09T00:38:58.653Z,2.23
2022-11-09T00:41:25.080Z,2.10
2022-11-09T00:43:52.213Z,2.43
2022-11-09T00:46:19.441Z,2.10
2022-11-09T00:48:46.033Z,2.07
2022-11-09T00:51:13.272Z,1.73
2022-11-09T00:53:40.647Z,1.80
2022-11-09T00:56:10.604Z,2.20
2022-11-09T00:58:38.213Z,2.23
2022-11-09T01:01:13.718Z,1.80
2022-11-09T01:03:42.201Z,2.00
2022-11-09T01:06:09.272Z,1.77
2022-11-09T01:08:36.015Z,1.80
2022-11-09T01:11:06.400Z,2.00
2022-11-09T01:13:33.440Z,2.00
2022-11-09T01:15:59.742Z,1.90
2022-11-09T01:18:27.078Z,1.70
2022-11-09T01:20:54.050Z,1.70
2022-11-09T01:23:21.421Z,1.97
2022-11-09T01:25:47.855Z,2.03
2022-11-09T01:28:14.238Z,1.70
2022-11-09T01:30:42.133Z,2.03
2022-11-09T01:33:11.553Z,1.73
2022-11-09T01:35:40.050Z,2.20
2022-11-09T01:38:07.174Z,2.60
2022-11-09T01:40:36.207Z,2.10
2022-11-09T01:43:14.231Z,2.53
2022-11-09T01:45:42.845Z,2.00
2022-11-09T01:48:15.889Z,2.03
2022-11-09T01:50:58.435Z,1.90
2022-11-09T01:53:36.905Z,2.00
2022-11-09T01:56:05.234Z,1.70
2022-11-09T01:58:41.167Z,1.93
2022-11-09T02:01:11.132Z,1.50
2022-11-09T02:04:01.565Z,1.73
2022-11-09T02:06:30.130Z,1.80
2022-11-09T02:09:02.359Z,2.23
2022-11-09T02:11:29.242Z,1.70
2022-11-09T02:13:57.682Z,2.10
2022-11-09T02:16:24.910Z,1.87
2022-11-09T02:18:53.160Z,2.20
2022-11-09T02:21:22.573Z,2.20
2022-11-09T02:23:49.641Z,1.70
2022-11-09T02:26:58.565Z,2.53
2022-11-09T02:29:27.438Z,1.70
2022-11-09T02:31:55.175Z,1.60
2022-11-09T02:34:22.039Z,1.67
2022-11-09T02:36:48.807Z,2.20
2022-11-09T02:39:23.047Z,1.80
2022-11-09T02:42:02.962Z,1.73
2022-11-09T02:44:36.581Z,1.97
2022-11-09T02:47:03.034Z,2.27
2022-11-09T02:49:30.275Z,1.57
2022-11-09T02:51:56.684Z,1.70
2022-11-09T02:54:23.415Z,1.53
2022-11-09T02:56:51.662Z,1.73
2022-11-09T02:59:18.199Z,2.00
2022-11-09T03:01:44.819Z,1.93
2022-11-09T03:04:11.224Z,1.60
2022-11-09T03:06:37.832Z,1.60
2022-11-09T03:09:11.918Z,1.43
2022-11-09T03:11:39.533Z,2.07
2022-11-09T03:14:07.440Z,1.77
2022-11-09T03:16:35.104Z,2.07
2022-11-09T03:19:04.009Z,2.43
2022-11-09T03:21:30.389Z,2.00
2022-11-09T03:23:56.693Z,1.90
2022-11-09T03:26:24.071Z,1.97
2022-11-09T03:28:51.454Z,2.00
2022-11-09T03:31:17.939Z,1.63
2022-11-09T03:33:46.264Z,1.43
2022-11-09T03:36:12.934Z,1.30
2022-11-09T03:38:39.334Z,2.13
2022-11-09T03:41:05.751Z,1.90
2022-11-09T03:43:34.282Z,1.57
2022-11-09T03:46:00.657Z,1.50
2022-11-09T03:48:27.011Z,1.40
2022-11-09T03:50:53.414Z,1.60
2022-11-09T03:53:20.090Z,1.73
2022-11-09T03:55:46.655Z,1.40
2022-11-09T03:58:13.258Z,1.50
2022-11-09T04:00:40.165Z,1.63
2022-11-09T04:03:06.568Z,2.03
2022-11-09T04:05:32.939Z,1.93
2022-11-09T04:07:59.347Z,1.93
2022-11-09T04:10:26.479Z,1.30
2022-11-09T04:12:52.888Z,1.37
2022-11-09T04:15:19.355Z,1.73
2022-11-09T04:17:53.601Z,1.60
2022-11-09T04:20:19.989Z,1.33
2022-11-09T04:22:53.223Z,1.70
2022-11-09T04:25:19.595Z,1.63
2022-11-09T04:27:45.945Z,2.10
2022-11-09T04:30:12.629Z,1.80
2022-11-09T04:32:38.999Z,1.80
2022-11-09T04:35:05.785Z,2.13
2022-11-09T04:37:32.069Z,1.97
2022-11-09T04:39:58.414Z,1.60
2022-11-09T04:42:24.742Z,1.77
2022-11-09T04:44:51.076Z,1.77
2022-11-09T04:47:17.422Z,1.70
2022-11-09T04:49:43.786Z,1.70
2022-11-09T04:52:10.056Z,1.63
2022-11-09T04:54:36.430Z,1.90
2022-11-09T04:57:02.793Z,1.90
2022-11-09T04:59:29.093Z,1.73
2022-11-09T05:01:55.464Z,1.50
2022-11-09T05:04:21.810Z,1.57
2022-11-09T05:06:48.199Z,1.70
2022-11-09T05:09:14.493Z,1.30
2022-11-09T05:11:40.889Z,1.33
2022-11-09T05:14:07.184Z,1.70
2022-11-09T05:16:33.808Z,2.00
2022-11-09T05:19:00.165Z,1.97
2022-11-09T05:21:27.442Z,1.60
2022-11-09T05:23:59.480Z,1.67
2022-11-09T05:26:31.108Z,1.63
2022-11-09T05:28:59.051Z,1.83
2022-11-09T05:31:26.503Z,1.70
2022-11-09T05:33:53.489Z,1.53
2022-11-09T05:36:20.858Z,1.67
2022-11-09T05:38:47.845Z,1.97
2022-11-09T05:41:14.255Z,1.63
2022-11-09T05:43:40.582Z,2.20
2022-11-09T05:46:07.355Z,1.63
2022-11-09T05:48:33.743Z,2.33
2022-11-09T05:51:02.257Z,1.83
2022-11-09T05:53:28.651Z,1.57
2022-11-09T05:55:55.064Z,1.70
2022-11-09T05:58:21.813Z,1.67
2022-11-09T06:00:48.207Z,1.60
2022-11-09T06:03:14.546Z,1.63
2022-11-09T06:05:41.181Z,1.70
2022-11-09T06:08:10.791Z,1.30
2022-11-09T06:10:37.345Z,1.97
2022-11-09T06:13:03.841Z,1.50
2022-11-09T06:15:30.455Z,1.53
2022-11-09T06:17:59.023Z,1.40
2022-11-09T06:20:27.128Z,2.20
2022-11-09T06:23:02.730Z,1.67
2022-11-09T06:25:31.523Z,1.93
2022-11-09T06:27:58.290Z,1.93
2022-11-09T06:30:24.754Z,1.80
2022-11-09T06:32:51.180Z,1.40
2022-11-09T06:35:17.473Z,2.23
2022-11-09T06:37:44.289Z,2.27
2022-11-09T06:40:12.505Z,1.93
2022-11-09T06:42:39.039Z,2.37
2022-11-09T06:45:05.825Z,2.00
2022-11-09T06:47:32.227Z,2.73
2022-11-09T06:49:58.578Z,2.17
2022-11-09T06:52:25.929Z,1.90
2022-11-09T06:54:52.226Z,2.00
2022-11-09T06:57:18.588Z,2.03
2022-11-09T06:59:44.989Z,1.70
2022-11-09T07:02:14.722Z,1.60
2022-11-09T07:04:40.989Z,2.33
2022-11-09T07:07:07.390Z,1.73
2022-11-09T07:09:33.866Z,2.30
2022-11-09T07:12:00.232Z,2.50
2022-11-09T07:14:26.569Z,1.73
2022-11-09T07:16:52.913Z,2.10
2022-11-09T07:19:19.503Z,1.80
2022-11-09T07:21:45.849Z,2.03
2022-11-09T07:24:12.134Z,2.43
2022-11-09T07:26:38.484Z,2.17
2022-11-09T07:29:04.856Z,2.23
2022-11-09T07:31:31.877Z,2.50
2022-11-09T07:33:58.899Z,2.70
2022-11-09T07:36:25.259Z,1.83
2022-11-09T07:38:51.603Z,2.40
2022-11-09T07:41:17.963Z,2.20
2022-11-09T07:43:44.302Z,1.83
2022-11-09T07:46:10.749Z,1.77
2022-11-09T07:48:37.170Z,2.10
2022-11-09T07:51:03.542Z,2.03
2022-11-09T07:53:30.011Z,1.93
2022-11-09T07:55:58.492Z,1.53
2022-11-09T07:58:25.174Z,2.10
2022-11-09T08:00:51.510Z,1.97
2022-11-09T08:03:18.519Z,1.70
2022-11-09T08:05:45.406Z,1.83
2022-11-09T08:08:12.317Z,1.63
2022-11-09T08:10:39.314Z,1.87
2022-11-09T08:13:09.389Z,1.87
2022-11-09T08:15:36.353Z,1.90
2022-11-09T08:18:06.358Z,2.60
2022-11-09T08:20:33.714Z,2.10
2022-11-09T08:23:03.935Z,1.77
2022-11-09T08:25:35.462Z,2.00
2022-11-09T08:28:03.241Z,2.47
2022-11-09T08:30:29.690Z,1.53
2022-11-09T08:32:56.231Z,1.50
2022-11-09T08:35:24.168Z,1.37
2022-11-09T08:37:52.084Z,1.30
2022-11-09T08:40:20.121Z,1.30
2022-11-09T08:42:46.631Z,1.30
2022-11-09T08:45:13.528Z,1.50
2022-11-09T08:47:40.142Z,0.97
2022-11-09T08:50:08.787Z,2.00
2022-11-09T08:52:35.170Z,1.30
2022-11-09T08:55:01.572Z,1.10
2022-11-09T08:57:28.929Z,1.27
2022-11-09T08:59:55.311Z,1.77
2022-11-09T09:02:21.678Z,1.87
2022-11-09T09:04:48.162Z,1.83
2022-11-09T09:07:14.881Z,1.47
2022-11-09T09:09:41.259Z,1.53
2022-11-09T09:12:08.994Z,1.53
2022-11-09T09:14:35.931Z,1.07
2022-11-09T09:17:02.501Z,1.67
2022-11-09T09:19:28.900Z,1.90
2022-11-09T09:21:55.236Z,1.87
2022-11-09T09:24:21.651Z,2.00
2022-11-09T09:26:48.439Z,1.57
2022-11-09T09:29:14.791Z,1.53
2022-11-09T09:31:41.346Z,1.43
2022-11-09T09:34:08.018Z,1.20
2022-11-09T09:36:35.468Z,1.73
2022-11-09T09:39:01.969Z,1.50
2022-11-09T09:41:34.128Z,1.37
2022-11-09T09:44:13.743Z,1.63
2022-11-09T09:46:43.441Z,1.60
2022-11-09T09:49:17.103Z,1.63
2022-11-09T09:51:53.773Z,1.60
2022-11-09T09:54:22.348Z,2.17
2022-11-09T09:56:49.538Z,1.53
2022-11-09T09:59:32.972Z,1.60
2022-11-09T10:01:59.270Z,1.77
2022-11-09T10:04:34.610Z,1.50
2022-11-09T10:07:17.514Z,1.73
2022-11-09T10:09:55.965Z,1.10
2022-11-09T10:12:49.666Z,1.90
2022-11-09T10:15:34.035Z,2.17
2022-11-09T10:18:19.551Z,1.73
2022-11-09T10:21:04.972Z,1.40
2022-11-09T10:23:51.460Z,1.27
2022-11-09T10:26:34.295Z,1.93
2022-11-09T10:29:15.766Z,1.30
2022-11-09T10:31:45.642Z,1.67
2022-11-09T10:34:27.308Z,1.77
2022-11-09T10:37:03.272Z,1.53
2022-11-09T10:39:40.909Z,1.33
2022-11-09T10:42:25.713Z,1.37
2022-11-09T10:45:25.301Z,1.47
2022-11-09T10:48:11.905Z,1.57
2022-11-09T10:50:56.980Z,1.70
2022-11-09T10:53:41.516Z,1.43
2022-11-09T10:56:33.040Z,1.63
2022-11-09T10:59:38.868Z,1.20
2022-11-09T11:02:26.806Z,1.20
2022-11-09T11:05:14.445Z,1.20
2022-11-09T11:08:19.319Z,1.63
2022-11-09T11:11:32.090Z,1.33
2022-11-09T11:14:22.710Z,1.57
2022-11-09T11:17:22.175Z,1.37
2022-11-09T11:20:25.517Z,1.43
2022-11-09T11:23:20.071Z,1.33
2022-11-09T11:26:25.019Z,1.30
2022-11-09T11:29:16.588Z,1.40
2022-11-09T11:32:01.667Z,1.50
2022-11-09T11:35:00.274Z,1.30
2022-11-09T11:38:06.606Z,1.10
2022-11-09T11:41:06.922Z,1.40
2022-11-09T11:44:04.048Z,1.83
2022-11-09T11:47:10.535Z,1.10
2022-11-09T11:50:04.813Z,1.10
2022-11-09T11:52:55.739Z,1.20
2022-11-09T11:56:11.219Z,1.80
2022-11-09T11:59:14.465Z,1.40
2022-11-09T12:02:28.624Z,1.50
2022-11-09T12:05:50.855Z,1.30
2022-11-09T12:09:03.590Z,3.80
2022-11-09T12:11:54.493Z,1.93
2022-11-09T12:14:42.305Z,1.37
2022-11-09T12:17:33.196Z,1.40
2022-11-09T12:20:23.961Z,1.50
2022-11-09T12:23:17.979Z,1.27
2022-11-09T12:26:08.517Z,1.27
2022-11-09T12:29:05.467Z,1.30
2022-11-09T12:31:56.579Z,1.80
2022-11-09T12:34:56.867Z,1.33
2022-11-09T12:37:50.077Z,1.50
2022-11-09T12:40:37.716Z,1.23
2022-11-09T12:43:32.365Z,1.60
2022-11-09T12:46:20.422Z,1.40
2022-11-09T12:49:06.518Z,1.63
2022-11-09T12:51:55.437Z,1.20
2022-11-09T12:54:45.810Z,1.10
2022-11-09T12:57:31.129Z,1.50
2022-11-09T13:00:34.350Z,1.60
2022-11-09T13:03:23.980Z,1.23
2022-11-09T13:06:17.251Z,0.90
2022-11-09T13:09:15.359Z,1.47
2022-11-09T13:12:20.236Z,1.60
2022-11-09T13:15:24.681Z,1.30
2022-11-09T13:18:25.686Z,1.90
2022-11-09T13:21:22.852Z,2.13
2022-11-09T13:24:29.840Z,1.53
2022-11-09T13:27:33.179Z,1.47
2022-11-09T13:30:24.611Z,2.13
2022-11-09T13:33:16.633Z,1.80
2022-11-09T13:36:13.724Z,1.70
2022-11-09T13:39:17.437Z,1.80
2022-11-09T13:42:02.455Z,2.17
2022-11-09T13:44:48.237Z,1.80
2022-11-09T13:47:36.715Z,1.73
2022-11-09T13:50:24.620Z,1.30
2022-11-09T13:53:38.407Z,1.93
2022-11-09T13:56:28.207Z,1.97
2022-11-09T13:59:22.341Z,2.07
2022-11-09T14:02:24.200Z,1.63
2022-11-09T14:05:32.958Z,2.07
2022-11-09T14:08:30.288Z,1.60
2022-11-09T14:11:27.936Z,1.83
2022-11-09T14:14:28.042Z,1.37
2022-11-09T14:17:25.731Z,1.53
2022-11-09T14:20:12.042Z,1.40
2022-11-09T14:22:57.170Z,1.33
2022-11-09T14:25:41.942Z,1.83
2022-11-09T14:28:32.665Z,1.60
2022-11-09T14:31:28.689Z,1.57
2022-11-09T14:34:15.112Z,1.60
2022-11-09T14:37:04.702Z,2.13
2022-11-09T14:39:53.008Z,1.50
2022-11-09T14:42:42.132Z,2.03
2022-11-09T14:45:31.022Z,1.90
2022-11-09T14:48:20.319Z,1.97
2022-11-09T14:51:07.895Z,1.57
2022-11-09T14:53:52.981Z,1.60
2022-11-09T14:56:38.883Z,1.90
2022-11-09T14:59:34.108Z,1.30
2022-11-09T15:02:20.922Z,1.63
2022-11-09T15:05:07.048Z,2.10
2022-11-09T15:07:52.146Z,1.90
2022-11-09T15:10:37.727Z,1.83
2022-11-09T15:13:31.616Z,1.83
2022-11-09T15:16:28.987Z,2.03
2022-11-09T15:19:51.294Z,2.10
2022-11-09T15:23:05.826Z,1.70
2022-11-09T15:25:51.433Z,1.60
2022-11-09T15:28:43.387Z,2.13
2022-11-09T15:31:28.386Z,2.13
2022-11-09T15:34:22.483Z,1.40
2022-11-09T15:37:37.811Z,1.40
2022-11-09T15:40:24.928Z,1.90
2022-11-09T15:43:09.962Z,1.83
2022-11-09T15:45:56.234Z,1.77
2022-11-09T15:48:45.678Z,2.13
2022-11-09T15:51:30.932Z,1.97
2022-11-09T15:54:16.050Z,1.87
2022-11-09T15:57:01.011Z,1.60
2022-11-09T15:59:48.062Z,2.27
2022-11-09T16:02:33.194Z,1.60
2022-11-09T16:05:19.614Z,2.10
2022-11-09T16:08:07.450Z,1.97
2022-11-09T16:10:52.610Z,1.87
2022-11-09T16:13:37.577Z,2.07
2022-11-09T16:16:22.345Z,1.60
2022-11-09T16:19:07.100Z,2.10
2022-11-09T16:21:53.090Z,2.40
2022-11-09T16:24:38.118Z,2.20
2022-11-09T16:27:48.303Z,2.03
2022-11-09T16:30:28.326Z,2.63
2022-11-09T16:33:13.903Z,2.40
2022-11-09T16:36:01.381Z,2.83
2022-11-09T16:38:48.454Z,2.60
2022-11-09T16:41:33.914Z,2.60
2022-11-09T16:44:21.099Z,2.97
2022-11-09T16:47:11.174Z,3.33
2022-11-09T16:49:55.860Z,2.50
2022-11-09T16:52:40.739Z,2.37
2022-11-09T16:55:25.442Z,1.70
2022-11-09T16:58:10.173Z,2.10
2022-11-09T17:01:10.610Z,1.80
2022-11-09T17:03:57.465Z,2.07
2022-11-09T17:06:42.258Z,2.00
2022-11-09T17:09:26.873Z,2.03
2022-11-09T17:12:11.983Z,2.20
2022-11-09T17:14:56.883Z,1.80
2022-11-09T17:17:41.550Z,2.27
2022-11-09T17:20:26.408Z,2.63
2022-11-09T17:23:11.657Z,2.50
2022-11-09T17:25:56.487Z,2.83
2022-11-09T17:28:43.063Z,2.57
2022-11-09T17:31:28.252Z,2.50
2022-11-09T17:34:13.100Z,2.70
2022-11-09T17:37:04.127Z,2.20
2022-11-09T17:39:49.989Z,2.50
2022-11-09T17:42:35.145Z,2.13
2022-11-09T17:45:19.966Z,2.93
2022-11-09T17:48:05.280Z,3.50
2022-11-09T17:50:50.294Z,2.40
2022-11-09T17:53:35.893Z,3.97
2022-11-09T17:56:20.898Z,3.87
2022-11-09T17:59:05.721Z,3.10
2022-11-09T18:01:50.564Z,3.70
2022-11-09T18:04:37.378Z,3.37
2022-11-09T18:07:22.214Z,3.67
2022-11-09T18:10:07.755Z,2.53
2022-11-09T18:12:52.503Z,2.90
2022-11-09T18:15:38.287Z,3.73
2022-11-09T18:18:23.711Z,3.97
2022-11-09T18:21:10.681Z,3.63
2022-11-09T18:23:55.902Z,4.00
2022-11-09T18:26:40.874Z,3.33
2022-11-09T18:29:25.800Z,3.30
2022-11-09T18:32:10.660Z,2.47
2022-11-09T18:34:55.875Z,2.80
2022-11-09T18:37:40.882Z,2.77
2022-11-09T18:40:26.171Z,2.60
2022-11-09T18:43:10.857Z,2.60
2022-11-09T18:46:00.683Z,2.47
2022-11-09T18:48:45.663Z,2.13
2022-11-09T18:51:30.709Z,2.30
2022-11-09T18:54:15.742Z,2.67
2022-11-09T18:57:00.512Z,2.27
2022-11-09T18:59:45.196Z,2.50
2022-11-09T19:02:30.000Z,2.37
2022-11-09T19:05:14.705Z,3.00
2022-11-09T19:07:59.356Z,2.43
2022-11-09T19:10:44.233Z,2.20
2022-11-09T19:13:29.108Z,2.43
2022-11-09T19:16:15.275Z,2.57
2022-11-09T19:19:00.211Z,2.83
2022-11-09T19:21:52.786Z,3.50
2022-11-09T19:24:37.442Z,2.50
2022-11-09T19:27:24.287Z,2.50
2022-11-09T19:30:10.047Z,2.83
2022-11-09T19:32:54.962Z,2.90
2022-11-09T19:35:39.876Z,3.07
2022-11-09T19:38:24.623Z,2.67
2022-11-09T19:41:09.972Z,2.80
2022-11-09T19:43:58.470Z,2.90
2022-11-09T19:46:44.337Z,2.37
2022-11-09T19:49:29.342Z,2.53
2022-11-09T19:52:14.122Z,3.50
2022-11-09T19:54:58.835Z,3.00
2022-11-09T19:57:43.774Z,2.37
2022-11-09T20:00:28.377Z,3.73
2022-11-09T20:03:13.145Z,3.37
2022-11-09T20:05:58.354Z,3.40
2022-11-09T20:08:43.159Z,4.50
2022-11-09T20:11:47.572Z,2.53
2022-11-09T20:14:32.613Z,3.13
2022-11-09T20:17:17.461Z,3.00
2022-11-09T20:20:02.233Z,3.43
2022-11-09T20:22:47.070Z,3.43
2022-11-09T20:25:32.112Z,3.63
2022-11-09T20:28:17.161Z,3.20
2022-11-09T20:31:12.440Z,3.40
2022-11-09T20:33:57.383Z,2.50
2022-11-09T20:36:42.207Z,3.37
2022-11-09T20:39:26.991Z,3.00
2022-11-09T20:42:12.178Z,3.07
2022-11-09T20:44:58.584Z,3.70
2022-11-09T20:48:07.231Z,2.70
2022-11-09T20:50:48.708Z,3.27
2022-11-09T20:53:33.863Z,3.40
2022-11-09T20:56:19.628Z,2.93
2022-11-09T20:59:04.520Z,3.33
2022-11-09T21:01:49.309Z,3.10
2022-11-09T21:04:34.152Z,3.53
2022-11-09T21:07:19.128Z,3.20
2022-11-09T21:10:04.042Z,3.50
2022-11-09T21:12:53.437Z,3.57
2022-11-09T21:15:38.575Z,2.63
2022-11-09T21:18:23.719Z,3.17
2022-11-09T21:21:10.582Z,3.97
2022-11-09T21:24:14.021Z,4.07
2022-11-09T21:27:17.688Z,4.57
2022-11-09T21:30:03.342Z,4.40
2022-11-09T21:32:48.152Z,3.50
2022-11-09T21:35:32.871Z,3.20
2022-11-09T21:38:18.132Z,3.50
2022-11-09T21:41:24.518Z,4.23
2022-11-09T21:44:10.837Z,3.77
2022-11-09T21:46:56.770Z,4.53
2022-11-09T21:49:41.835Z,4.67
2022-11-09T21:52:26.800Z,4.47
2022-11-09T21:55:11.809Z,3.93
2022-11-09T21:57:56.937Z,4.30
2022-11-09T22:00:41.736Z,4.80
2022-11-09T22:03:26.508Z,4.50
2022-11-09T22:06:11.643Z,4.23
2022-11-09T22:08:56.593Z,3.97
2022-11-09T22:12:00.570Z,3.13
2022-11-09T22:15:04.394Z,3.10
2022-11-09T22:17:53.058Z,4.00
2022-11-09T22:20:56.293Z,3.53
2022-11-09T22:23:41.615Z,4.97
2022-11-09T22:26:28.252Z,4.03
2022-11-09T22:29:13.371Z,4.40
2022-11-09T22:31:58.523Z,2.90
2022-11-09T22:34:44.592Z,4.13
2022-11-09T22:37:29.535Z,3.77
2022-11-09T22:40:14.502Z,4.03
2022-11-09T22:42:59.159Z,4.70
2022-11-09T22:45:44.537Z,4.10
2022-11-09T22:48:31.698Z,5.07
2022-11-09T22:51:17.410Z,4.70
2022-11-09T22:54:03.763Z,4.70
2022-11-09T22:56:48.593Z,4.30
2022-11-09T22:59:33.392Z,5.20
2022-11-09T23:02:18.508Z,3.90
2022-11-09T23:05:03.522Z,4.97
2022-11-09T23:07:48.400Z,4.60
2022-11-09T23:10:33.437Z,5.30
2022-11-09T23:13:18.566Z,4.97
2022-11-09T23:16:07.572Z,4.20
2022-11-09T23:18:55.646Z,4.90
2022-11-09T23:21:41.062Z,4.50
2022-11-09T23:24:44.610Z,5.30
2022-11-09T23:27:29.935Z,4.43
2022-11-09T23:30:15.033Z,5.30
2022-11-09T23:33:01.411Z,5.97
2022-11-09T23:35:46.267Z,4.37
2022-11-09T23:38:36.071Z,4.63
2022-11-09T23:41:21.071Z,5.57
2022-11-09T23:44:06.077Z,4.43
2022-11-09T23:46:50.758Z,4.83
2022-11-09T23:49:35.658Z,4.93
2022-11-09T23:52:20.351Z,5.10
2022-11-09T23:55:05.668Z,4.50
2022-11-09T23:57:50.664Z,4.23
